createdAt,value
2023-02-18T00:00:19.337Z,94.00
2023-02-18T00:02:46.426Z,89.25
2023-02-18T00:05:13.774Z,91.75
2023-02-18T00:07:40.805Z,95.80
2023-02-18T00:10:09.152Z,95.00
2023-02-18T00:12:35.673Z,93.00
2023-02-18T00:15:02.188Z,94.00
2023-02-18T00:17:29.235Z,93.40
2023-02-18T00:19:55.753Z,91.00
2023-02-18T00:22:22.171Z,84.50
2023-02-18T00:24:48.915Z,86.75
2023-02-18T00:27:15.746Z,92.50
2023-02-18T00:29:42.189Z,87.50
2023-02-18T00:32:08.726Z,83.00
2023-02-18T00:34:35.213Z,75.75
2023-02-18T00:37:01.813Z,78.67
2023-02-18T00:39:28.246Z,79.80
2023-02-18T00:41:54.794Z,78.00
2023-02-18T00:44:21.251Z,71.80
2023-02-18T00:46:49.696Z,74.00
2023-02-18T00:49:16.681Z,67.60
2023-02-18T00:51:44.251Z,76.25
2023-02-18T00:54:10.739Z,78.50
2023-02-18T00:56:37.217Z,71.00
2023-02-18T00:59:03.829Z,73.20
2023-02-18T01:01:30.380Z,71.60
2023-02-18T01:03:56.958Z,74.20
2023-02-18T01:06:23.539Z,74.00
2023-02-18T01:08:50.054Z,77.25
2023-02-18T01:11:16.598Z,72.75
2023-02-18T01:13:43.352Z,74.50
2023-02-18T01:16:10.665Z,77.50
2023-02-18T01:18:38.303Z,78.75
2023-02-18T01:21:08.820Z,76.25
2023-02-18T01:23:35.831Z,79.75
2023-02-18T01:26:02.285Z,83.00
2023-02-18T01:28:28.883Z,73.00
2023-02-18T01:30:55.434Z,86.75
2023-02-18T01:33:22.075Z,78.00
2023-02-18T01:35:48.872Z,76.50
2023-02-18T01:38:15.483Z,69.80
2023-02-18T01:40:46.589Z,77.75
2023-02-18T01:43:13.449Z,79.00
2023-02-18T01:45:52.047Z,89.20
2023-02-18T01:48:21.705Z,82.00
2023-02-18T01:50:51.153Z,78.75
2023-02-18T01:53:20.582Z,78.00
2023-02-18T01:55:48.097Z,79.75
2023-02-18T01:58:14.908Z,77.25
2023-02-18T02:00:41.492Z,72.75
2023-02-18T02:03:08.168Z,73.75
2023-02-18T02:05:35.092Z,76.80
2023-02-18T02:08:02.166Z,78.50
2023-02-18T02:10:47.049Z,78.40
2023-02-18T02:13:16.544Z,80.40
2023-02-18T02:15:51.936Z,79.00
2023-02-18T02:18:24.624Z,74.25
2023-02-18T02:21:26.432Z,72.75
2023-02-18T02:24:04.994Z,79.60
2023-02-18T02:26:58.485Z,77.75
2023-02-18T02:29:43.467Z,73.00
2023-02-18T02:32:10.889Z,80.33
2023-02-18T02:34:58.877Z,73.75
2023-02-18T02:37:32.306Z,74.80
2023-02-18T02:40:06.897Z,69.00
2023-02-18T02:42:48.130Z,72.60
2023-02-18T02:45:40.738Z,78.50
2023-02-18T02:48:10.190Z,68.50
2023-02-18T02:50:36.635Z,70.67
2023-02-18T02:53:08.132Z,63.80
2023-02-18T02:55:34.817Z,67.40
2023-02-18T02:58:02.395Z,71.40
2023-02-18T03:00:39.127Z,75.00
2023-02-18T03:03:08.671Z,68.00
2023-02-18T03:05:41.205Z,70.00
2023-02-18T03:08:23.093Z,67.20
2023-02-18T03:10:56.977Z,73.00
2023-02-18T03:13:23.582Z,73.00
2023-02-18T03:15:59.214Z,69.75
2023-02-18T03:18:44.883Z,70.50
2023-02-18T03:21:15.253Z,68.00
2023-02-18T03:24:08.190Z,68.80
2023-02-18T03:26:36.821Z,79.00
2023-02-18T03:29:05.766Z,71.25
2023-02-18T03:31:34.583Z,70.40
2023-02-18T03:34:12.794Z,72.25
2023-02-18T03:36:39.703Z,69.00
2023-02-18T03:39:15.191Z,71.25
2023-02-18T03:41:42.285Z,67.20
2023-02-18T03:44:09.608Z,66.60
2023-02-18T03:46:37.511Z,59.20
2023-02-18T03:49:05.644Z,62.00
2023-02-18T03:51:32.625Z,59.40
2023-02-18T03:53:59.358Z,68.75
2023-02-18T03:56:25.878Z,63.80
2023-02-18T03:58:52.460Z,68.25
2023-02-18T04:01:18.936Z,67.00
2023-02-18T04:03:45.476Z,68.25
2023-02-18T04:06:12.140Z,66.00
2023-02-18T04:08:38.674Z,70.40
2023-02-18T04:11:05.669Z,70.25
2023-02-18T04:13:32.282Z,71.40
2023-02-18T04:15:58.768Z,74.25
2023-02-18T04:18:25.246Z,68.75
2023-02-18T04:20:51.983Z,74.00
2023-02-18T04:23:18.470Z,81.50
2023-02-18T04:25:44.970Z,73.40
2023-02-18T04:28:13.426Z,73.80
2023-02-18T04:30:40.243Z,75.60
2023-02-18T04:33:06.827Z,76.60
2023-02-18T04:35:33.473Z,103.00
2023-02-18T04:38:00.004Z,91.00
2023-02-18T04:40:29.819Z,92.20
2023-02-18T04:42:59.541Z,117.80
2023-02-18T04:45:26.955Z,98.50
2023-02-18T04:47:53.780Z,75.50
2023-02-18T04:50:20.716Z,63.50
2023-02-18T04:52:47.539Z,66.20
2023-02-18T04:55:14.026Z,82.00
2023-02-18T04:57:40.513Z,80.60
2023-02-18T05:00:08.017Z,68.00
2023-02-18T05:02:34.580Z,63.25
2023-02-18T05:05:01.118Z,66.00
2023-02-18T05:07:27.713Z,66.50
2023-02-18T05:09:54.273Z,65.50
2023-02-18T05:12:20.747Z,62.50
2023-02-18T05:14:47.269Z,63.00
2023-02-18T05:17:13.765Z,61.00
2023-02-18T05:19:40.306Z,58.25
2023-02-18T05:22:06.800Z,65.60
2023-02-18T05:24:33.328Z,64.75
2023-02-18T05:27:00.361Z,63.50
2023-02-18T05:29:26.895Z,74.75
2023-02-18T05:31:53.516Z,65.67
2023-02-18T05:34:20.223Z,71.75
2023-02-18T05:36:46.758Z,85.40
2023-02-18T05:39:13.228Z,80.60
2023-02-18T05:41:39.809Z,78.25
2023-02-18T05:44:25.101Z,79.20
2023-02-18T05:46:51.655Z,81.75
2023-02-18T05:49:18.108Z,102.75
2023-02-18T05:51:44.618Z,110.00
2023-02-18T05:54:11.192Z,99.40
2023-02-18T05:56:37.660Z,104.80
2023-02-18T05:59:04.123Z,84.50
2023-02-18T06:01:30.764Z,77.50
2023-02-18T06:03:57.306Z,73.50
2023-02-18T06:06:23.943Z,72.00
2023-02-18T06:08:50.436Z,75.75
2023-02-18T06:11:16.937Z,69.75
2023-02-18T06:13:44.535Z,76.50
2023-02-18T06:16:11.260Z,71.00
2023-02-18T06:18:37.977Z,70.00
2023-02-18T06:21:04.843Z,78.25
2023-02-18T06:23:31.524Z,63.20
2023-02-18T06:25:57.967Z,64.67
2023-02-18T06:28:24.460Z,74.50
2023-02-18T06:30:51.026Z,104.75
2023-02-18T06:33:17.963Z,101.20
2023-02-18T06:35:52.776Z,81.00
2023-02-18T06:38:19.236Z,69.60
2023-02-18T06:40:46.927Z,63.00
2023-02-18T06:43:13.716Z,58.40
2023-02-18T06:45:40.624Z,76.75
2023-02-18T06:48:07.087Z,76.80
2023-02-18T06:50:33.570Z,69.50
2023-02-18T06:53:00.058Z,56.25
2023-02-18T06:55:26.596Z,57.75
2023-02-18T06:57:53.278Z,57.20
2023-02-18T07:00:20.123Z,56.00
2023-02-18T07:02:46.628Z,54.50
2023-02-18T07:05:13.126Z,50.00
2023-02-18T07:07:39.643Z,55.00
2023-02-18T07:10:06.934Z,53.00
2023-02-18T07:12:33.599Z,63.00
2023-02-18T07:15:00.214Z,69.00
2023-02-18T07:17:26.641Z,94.60
2023-02-18T07:19:53.325Z,85.00
2023-02-18T07:22:19.803Z,66.00
2023-02-18T07:24:46.277Z,71.00
2023-02-18T07:27:12.763Z,92.75
2023-02-18T07:29:39.241Z,101.00
2023-02-18T07:32:05.816Z,80.75
2023-02-18T07:34:32.356Z,62.25
2023-02-18T07:36:58.985Z,51.80
2023-02-18T07:39:25.463Z,50.60
2023-02-18T07:41:52.182Z,55.20
2023-02-18T07:44:18.819Z,54.60
2023-02-18T07:46:47.312Z,47.25
2023-02-18T07:49:14.732Z,51.00
2023-02-18T07:51:41.209Z,49.50
2023-02-18T07:54:07.713Z,51.60
2023-02-18T07:56:34.196Z,51.75
2023-02-18T07:59:00.670Z,59.50
2023-02-18T08:01:27.158Z,52.60
2023-02-18T08:03:53.695Z,49.00
2023-02-18T08:06:26.338Z,62.75
2023-02-18T08:08:52.776Z,56.00
2023-02-18T08:11:19.809Z,56.25
2023-02-18T08:13:47.374Z,55.25
2023-02-18T08:16:14.362Z,55.50
2023-02-18T08:18:40.915Z,58.25
2023-02-18T08:21:07.401Z,64.50
2023-02-18T08:23:33.905Z,48.75
2023-02-18T08:26:00.682Z,45.00
2023-02-18T08:28:27.180Z,46.00
2023-02-18T08:30:55.337Z,47.75
2023-02-18T08:33:22.424Z,50.25
2023-02-18T08:35:49.988Z,44.50
2023-02-18T08:38:16.633Z,49.00
2023-02-18T08:40:43.161Z,46.75
2023-02-18T08:43:10.193Z,44.00
2023-02-18T08:45:38.387Z,47.20
2023-02-18T08:48:16.913Z,44.00
2023-02-18T08:50:46.574Z,45.40
2023-02-18T08:53:13.119Z,44.00
2023-02-18T08:55:40.391Z,43.75
2023-02-18T08:58:06.946Z,43.00
2023-02-18T09:00:33.457Z,43.00
2023-02-18T09:03:00.139Z,40.60
2023-02-18T09:05:26.661Z,43.60
2023-02-18T09:07:53.148Z,40.50
2023-02-18T09:10:20.134Z,42.00
2023-02-18T09:12:46.593Z,39.00
2023-02-18T09:15:13.083Z,39.25
2023-02-18T09:17:39.630Z,42.00
2023-02-18T09:20:06.511Z,45.00
2023-02-18T09:22:33.021Z,47.25
2023-02-18T09:24:59.537Z,42.00
2023-02-18T09:27:26.040Z,41.25
2023-02-18T09:29:52.543Z,39.00
2023-02-18T09:32:32.516Z,44.40
2023-02-18T09:35:00.436Z,47.00
2023-02-18T09:37:26.883Z,43.00
2023-02-18T09:39:53.464Z,42.00
2023-02-18T09:42:23.954Z,43.00
2023-02-18T09:44:54.638Z,43.75
2023-02-18T09:47:21.086Z,43.00
2023-02-18T09:49:55.061Z,42.40
2023-02-18T09:52:25.973Z,42.00
2023-02-18T09:54:52.500Z,40.00
2023-02-18T09:57:24.359Z,40.50
2023-02-18T09:59:55.091Z,42.00
2023-02-18T10:02:21.745Z,36.25
2023-02-18T10:04:52.290Z,36.80
2023-02-18T10:07:27.426Z,35.00
2023-02-18T10:09:56.625Z,35.40
2023-02-18T10:12:24.774Z,34.00
2023-02-18T10:14:52.653Z,35.00
2023-02-18T10:17:20.725Z,34.60
2023-02-18T10:19:48.549Z,36.25
2023-02-18T10:22:16.446Z,32.20
2023-02-18T10:24:45.852Z,32.75
2023-02-18T10:27:16.626Z,36.40
2023-02-18T10:29:43.062Z,34.50
2023-02-18T10:32:27.780Z,35.60
2023-02-18T10:35:03.236Z,35.60
2023-02-18T10:37:35.595Z,35.75
2023-02-18T10:40:20.844Z,33.60
2023-02-18T10:42:53.218Z,34.75
2023-02-18T10:45:30.216Z,33.25
2023-02-18T10:47:56.662Z,35.00
2023-02-18T10:50:26.265Z,34.00
2023-02-18T10:52:55.233Z,30.60
2023-02-18T10:55:34.181Z,34.20
2023-02-18T10:58:00.645Z,31.25
2023-02-18T11:00:27.754Z,32.00
2023-02-18T11:03:12.943Z,33.00
2023-02-18T11:05:40.749Z,25.40
2023-02-18T11:08:10.080Z,28.80
2023-02-18T11:10:39.424Z,27.00
2023-02-18T11:13:07.406Z,30.20
2023-02-18T11:15:34.601Z,30.00
2023-02-18T11:18:33.646Z,30.20
2023-02-18T11:21:05.189Z,25.40
2023-02-18T11:23:31.740Z,30.50
2023-02-18T11:26:03.568Z,26.20
2023-02-18T11:28:30.443Z,29.75
2023-02-18T11:31:00.159Z,28.60
2023-02-18T11:33:32.500Z,28.75
2023-02-18T11:36:03.304Z,29.40
2023-02-18T11:38:35.203Z,31.00
2023-02-18T11:41:07.176Z,28.75
2023-02-18T11:43:34.448Z,25.00
2023-02-18T11:46:20.700Z,31.00
2023-02-18T11:48:47.370Z,32.00
2023-02-18T11:51:21.378Z,27.00
2023-02-18T11:53:55.965Z,30.00
2023-02-18T11:56:22.500Z,28.40
2023-02-18T11:58:50.491Z,25.50
2023-02-18T12:01:35.393Z,22.75
2023-02-18T12:04:07.340Z,18.00
2023-02-18T12:06:37.926Z,20.80
2023-02-18T12:09:06.224Z,27.50
2023-02-18T12:11:42.389Z,25.00
2023-02-18T12:14:20.096Z,32.20
2023-02-18T12:17:02.958Z,35.00
2023-02-18T12:19:29.570Z,32.00
2023-02-18T12:22:25.417Z,36.50
2023-02-18T12:24:57.993Z,37.25
2023-02-18T12:28:00.119Z,39.00
2023-02-18T12:30:26.727Z,37.60
2023-02-18T12:32:59.545Z,40.60
2023-02-18T12:35:41.109Z,40.80
2023-02-18T12:38:26.587Z,40.25
2023-02-18T12:41:08.652Z,39.25
2023-02-18T12:43:35.329Z,39.00
2023-02-18T12:46:07.590Z,41.00
2023-02-18T12:48:45.923Z,42.00
2023-02-18T12:51:22.716Z,41.00
2023-02-18T12:53:55.850Z,39.00
2023-02-18T12:56:41.091Z,41.75
2023-02-18T12:59:07.635Z,41.20
2023-02-18T13:01:49.518Z,37.50
2023-02-18T13:04:17.743Z,46.25
2023-02-18T13:06:57.377Z,43.00
2023-02-18T13:09:23.844Z,43.40
2023-02-18T13:12:00.203Z,40.00
2023-02-18T13:14:31.809Z,43.75
2023-02-18T13:17:00.223Z,46.00
2023-02-18T13:19:29.848Z,43.80
2023-02-18T13:21:59.001Z,39.75
2023-02-18T13:24:29.637Z,39.00
2023-02-18T13:26:58.658Z,38.40
2023-02-18T13:29:45.549Z,22.40
2023-02-18T13:32:33.747Z,18.50
2023-02-18T13:35:05.971Z,12.00
2023-02-18T13:37:38.074Z,11.20
2023-02-18T13:40:05.210Z,36.25
2023-02-18T13:42:31.673Z,35.25
2023-02-18T13:44:58.129Z,40.00
2023-02-18T13:47:36.494Z,33.40
2023-02-18T13:50:21.780Z,33.80
2023-02-18T13:52:51.359Z,26.25
2023-02-18T13:55:22.708Z,12.60
2023-02-18T13:57:50.117Z,10.25
2023-02-18T14:00:24.393Z,11.00
2023-02-18T14:03:02.002Z,10.00
2023-02-18T14:05:39.303Z,7.00
2023-02-18T14:08:15.696Z,8.75
2023-02-18T14:10:42.562Z,8.00
2023-02-18T14:13:19.720Z,9.00
2023-02-18T14:15:54.556Z,8.00
2023-02-18T14:18:25.632Z,12.00
2023-02-18T14:20:52.753Z,6.20
2023-02-18T14:23:19.256Z,8.50
2023-02-18T14:26:19.353Z,6.40
2023-02-18T14:28:48.881Z,8.60
2023-02-18T14:31:29.795Z,7.20
2023-02-18T14:33:59.960Z,8.00
2023-02-18T14:36:29.230Z,9.00
2023-02-18T14:39:14.237Z,10.00
2023-02-18T14:41:40.786Z,10.00
2023-02-18T14:44:26.582Z,15.00
2023-02-18T14:47:02.649Z,14.00
2023-02-18T14:49:38.531Z,16.00
2023-02-18T14:52:07.418Z,11.75
2023-02-18T14:54:34.097Z,15.00
2023-02-18T14:57:03.930Z,12.50
2023-02-18T14:59:40.981Z,14.00
2023-02-18T15:02:21.056Z,14.40
2023-02-18T15:04:47.875Z,14.80
2023-02-18T15:07:14.742Z,14.80
2023-02-18T15:09:53.210Z,17.00
2023-02-18T15:12:22.913Z,13.00
2023-02-18T15:14:52.705Z,17.00
2023-02-18T15:17:23.665Z,14.75
2023-02-18T15:19:58.014Z,14.40
2023-02-18T15:22:30.807Z,17.00
2023-02-18T15:24:57.523Z,19.80
2023-02-18T15:27:31.713Z,14.80
2023-02-18T15:30:03.110Z,18.00
2023-02-18T15:32:31.778Z,17.00
2023-02-18T15:35:01.798Z,18.00
2023-02-18T15:37:28.698Z,17.00
2023-02-18T15:39:55.310Z,18.20
2023-02-18T15:42:33.198Z,20.60
2023-02-18T15:45:02.376Z,24.75
2023-02-18T15:47:29.051Z,23.00
2023-02-18T15:50:00.669Z,27.75
2023-02-18T15:52:29.416Z,25.00
2023-02-18T15:54:57.053Z,21.75
2023-02-18T15:57:26.636Z,20.20
2023-02-18T16:00:14.484Z,28.40
2023-02-18T16:02:53.455Z,21.60
2023-02-18T16:05:24.566Z,21.40
2023-02-18T16:07:58.331Z,16.00
2023-02-18T16:10:24.916Z,21.25
2023-02-18T16:12:55.240Z,23.75
2023-02-18T16:15:26.543Z,22.50
2023-02-18T16:17:53.035Z,21.75
2023-02-18T16:20:23.853Z,24.60
2023-02-18T16:22:52.661Z,26.00
2023-02-18T16:25:23.477Z,23.00
2023-02-18T16:27:53.154Z,18.20
2023-02-18T16:30:21.860Z,19.00
2023-02-18T16:32:48.783Z,18.50
2023-02-18T16:35:15.403Z,19.40
2023-02-18T16:37:42.533Z,16.25
2023-02-18T16:40:27.798Z,21.50
2023-02-18T16:42:54.983Z,21.20
2023-02-18T16:45:24.373Z,22.50
2023-02-18T16:47:50.893Z,22.00
2023-02-18T16:50:19.612Z,18.40
2023-02-18T16:52:46.309Z,21.00
2023-02-18T16:55:23.399Z,19.00
2023-02-18T16:57:49.930Z,19.40
2023-02-18T17:00:17.322Z,20.60
2023-02-18T17:02:46.106Z,19.00
2023-02-18T17:05:26.370Z,20.40
2023-02-18T17:07:53.990Z,24.25
2023-02-18T17:10:20.820Z,27.00
2023-02-18T17:12:47.283Z,31.00
2023-02-18T17:15:34.441Z,30.40
2023-02-18T17:18:01.828Z,25.60
2023-02-18T17:20:30.500Z,31.20
2023-02-18T17:22:57.205Z,31.00
2023-02-18T17:25:28.849Z,28.20
2023-02-18T17:27:55.329Z,26.00
2023-02-18T17:30:21.874Z,33.00
2023-02-18T17:32:49.338Z,35.00
2023-02-18T17:35:19.829Z,39.75
2023-02-18T17:37:46.380Z,36.40
2023-02-18T17:40:13.771Z,34.40
2023-02-18T17:42:40.232Z,34.25
2023-02-18T17:45:25.394Z,36.00
2023-02-18T17:47:53.081Z,36.33
2023-02-18T17:50:19.553Z,34.50
2023-02-18T17:52:46.522Z,39.25
2023-02-18T17:55:23.393Z,45.00
2023-02-18T17:57:50.969Z,50.80
2023-02-18T18:00:19.523Z,47.00
2023-02-18T18:02:46.011Z,48.60
2023-02-18T18:05:31.830Z,35.00
2023-02-18T18:07:58.288Z,48.50
2023-02-18T18:10:30.631Z,32.75
2023-02-18T18:12:57.673Z,71.50
2023-02-18T18:15:40.354Z,39.50
2023-02-18T18:18:07.261Z,41.00
2023-02-18T18:20:34.936Z,26.75
2023-02-18T18:23:02.339Z,36.00
2023-02-18T18:25:38.957Z,27.00
2023-02-18T18:28:06.267Z,29.00
2023-02-18T18:30:35.394Z,30.00
2023-02-18T18:33:02.491Z,31.00
2023-02-18T18:35:28.968Z,27.60
2023-02-18T18:37:55.738Z,28.80
2023-02-18T18:40:24.013Z,30.00
2023-02-18T18:42:50.774Z,29.25
2023-02-18T18:45:24.426Z,31.50
2023-02-18T18:47:51.584Z,26.00
2023-02-18T18:50:18.368Z,32.00
2023-02-18T18:52:45.460Z,26.50
2023-02-18T18:55:19.913Z,31.00
2023-02-18T18:57:49.110Z,34.50
2023-02-18T19:00:16.314Z,35.50
2023-02-18T19:02:43.232Z,39.00
2023-02-18T19:05:19.209Z,37.75
2023-02-18T19:07:45.732Z,41.75
2023-02-18T19:10:12.244Z,43.00
2023-02-18T19:12:38.750Z,44.00
2023-02-18T19:15:05.365Z,47.75
2023-02-18T19:17:31.848Z,48.00
2023-02-18T19:19:58.341Z,50.33
2023-02-18T19:22:24.849Z,51.50
2023-02-18T19:24:51.363Z,47.50
2023-02-18T19:27:17.870Z,48.00
2023-02-18T19:29:44.443Z,49.50
2023-02-18T19:32:10.943Z,54.00
2023-02-18T19:34:37.395Z,52.50
2023-02-18T19:37:03.899Z,52.50
2023-02-18T19:39:30.351Z,56.00
2023-02-18T19:41:56.808Z,61.50
2023-02-18T19:44:24.372Z,60.50
2023-02-18T19:46:50.852Z,58.00
2023-02-18T19:49:17.342Z,57.00
2023-02-18T19:51:43.805Z,68.00
2023-02-18T19:54:10.312Z,71.40
2023-02-18T19:56:36.735Z,68.75
2023-02-18T19:59:03.221Z,72.50
2023-02-18T20:01:29.720Z,87.20
2023-02-18T20:03:56.201Z,79.00
2023-02-18T20:06:22.659Z,83.75
2023-02-18T20:08:49.173Z,81.60
2023-02-18T20:11:15.714Z,85.80
2023-02-18T20:13:42.453Z,95.75
2023-02-18T20:16:09.590Z,77.75
2023-02-18T20:18:36.424Z,102.00
2023-02-18T20:21:02.886Z,99.50
2023-02-18T20:23:29.336Z,104.00
2023-02-18T20:25:55.850Z,100.75
2023-02-18T20:28:22.307Z,89.25
2023-02-18T20:30:48.798Z,86.00
2023-02-18T20:33:15.324Z,88.75
2023-02-18T20:35:41.785Z,76.00
2023-02-18T20:38:08.216Z,75.75
2023-02-18T20:40:34.685Z,70.25
2023-02-18T20:43:01.114Z,66.25
2023-02-18T20:45:27.655Z,61.40
2023-02-18T20:47:54.219Z,61.00
2023-02-18T20:50:21.889Z,53.50
2023-02-18T20:52:48.341Z,62.00
2023-02-18T20:55:14.914Z,63.00
2023-02-18T20:57:41.393Z,78.00
2023-02-18T21:00:08.169Z,66.40
2023-02-18T21:02:34.652Z,64.20
2023-02-18T21:05:01.180Z,69.25
2023-02-18T21:07:27.844Z,62.50
2023-02-18T21:09:54.410Z,62.25
2023-02-18T21:12:20.937Z,55.00
2023-02-18T21:14:47.434Z,54.20
2023-02-18T21:17:14.221Z,53.00
2023-02-18T21:19:40.945Z,54.75
2023-02-18T21:22:07.457Z,51.50
2023-02-18T21:24:33.916Z,51.60
2023-02-18T21:27:01.361Z,53.50
2023-02-18T21:29:27.936Z,52.80
2023-02-18T21:31:55.206Z,54.25
2023-02-18T21:34:22.846Z,51.40
2023-02-18T21:36:49.386Z,48.80
2023-02-18T21:39:15.817Z,52.00
2023-02-18T21:41:42.292Z,48.50
2023-02-18T21:44:09.547Z,53.00
2023-02-18T21:46:36.749Z,50.00
2023-02-18T21:49:06.911Z,51.75
2023-02-18T21:51:57.803Z,53.75
2023-02-18T21:54:39.355Z,58.00
2023-02-18T21:57:07.749Z,54.40
2023-02-18T21:59:34.704Z,57.25
2023-02-18T22:02:01.978Z,51.80
2023-02-18T22:04:29.336Z,61.00
2023-02-18T22:06:55.812Z,55.25
2023-02-18T22:09:22.695Z,65.60
2023-02-18T22:11:49.184Z,68.00
2023-02-18T22:14:17.335Z,67.00
2023-02-18T22:16:44.040Z,54.50
2023-02-18T22:19:11.295Z,61.00
2023-02-18T22:21:37.917Z,79.80
2023-02-18T22:24:05.281Z,80.25
2023-02-18T22:26:31.724Z,63.75
2023-02-18T22:28:58.901Z,61.00
2023-02-18T22:31:26.650Z,67.25
2023-02-18T22:33:53.917Z,60.00
2023-02-18T22:36:21.601Z,71.80
2023-02-18T22:38:48.616Z,71.20
2023-02-18T22:41:16.543Z,72.75
2023-02-18T22:43:43.130Z,72.50
2023-02-18T22:46:13.157Z,76.40
2023-02-18T22:48:40.087Z,71.80
2023-02-18T22:51:14.141Z,71.75
2023-02-18T22:53:41.089Z,70.75
2023-02-18T22:56:08.893Z,70.20
2023-02-18T22:58:36.084Z,76.00
2023-02-18T23:01:03.229Z,74.40
2023-02-18T23:03:30.226Z,74.50
2023-02-18T23:06:06.109Z,81.40
2023-02-18T23:08:33.137Z,81.80
2023-02-18T23:11:00.476Z,101.00
2023-02-18T23:13:27.008Z,109.75
2023-02-18T23:16:00.583Z,106.75
2023-02-18T23:18:27.521Z,106.00
2023-02-18T23:21:26.441Z,103.00
2023-02-18T23:23:54.853Z,100.75
2023-02-18T23:26:23.215Z,99.60
2023-02-18T23:28:50.886Z,97.00
2023-02-18T23:31:18.793Z,98.50
2023-02-18T23:33:46.170Z,91.25
2023-02-18T23:36:13.663Z,86.75
2023-02-18T23:38:41.637Z,85.75
2023-02-18T23:41:08.283Z,86.00
2023-02-18T23:43:35.024Z,89.50
2023-02-18T23:46:01.677Z,88.60
2023-02-18T23:48:28.241Z,85.80
2023-02-18T23:51:01.743Z,86.80
2023-02-18T23:53:29.201Z,95.60
2023-02-18T23:56:05.123Z,98.20
2023-02-18T23:58:31.656Z,85.75
